createdAt,value
2023-03-23T00:00:05.952Z,97495.00
2023-03-23T00:00:15.950Z,97495.00
2023-03-23T00:00:26.241Z,97499.00
2023-03-23T00:00:36.243Z,97501.00
2023-03-23T00:00:46.285Z,97495.00
2023-03-23T00:00:56.364Z,97497.00
2023-03-23T00:01:06.375Z,97497.00
2023-03-23T00:01:16.441Z,97495.00
2023-03-23T00:01:26.468Z,97501.00
2023-03-23T00:01:36.490Z,97497.00
2023-03-23T00:01:46.492Z,97495.00
2023-03-23T00:01:56.615Z,97499.00
2023-03-23T00:02:06.881Z,97497.00
2023-03-23T00:02:16.892Z,97497.00
2023-03-23T00:02:26.957Z,97497.00
2023-03-23T00:02:36.950Z,97499.00
2023-03-23T00:02:47.031Z,97497.00
2023-03-23T00:02:57.011Z,97495.00
2023-03-23T00:03:07.062Z,97497.00
2023-03-23T00:03:17.190Z,97497.00
2023-03-23T00:03:27.208Z,97497.00
2023-03-23T00:03:37.204Z,97495.00
2023-03-23T00:03:47.452Z,97497.00
2023-03-23T00:03:57.470Z,97499.00
2023-03-23T00:04:07.510Z,97497.00
2023-03-23T00:04:17.842Z,97497.00
2023-03-23T00:04:27.860Z,97497.00
2023-03-23T00:04:37.860Z,97497.00
2023-03-23T00:04:47.868Z,97497.00
2023-03-23T00:04:58.185Z,97497.00
2023-03-23T00:05:08.184Z,97495.00
2023-03-23T00:05:18.186Z,97499.00
2023-03-23T00:05:28.254Z,97497.00
2023-03-23T00:05:38.255Z,97499.00
2023-03-23T00:05:48.259Z,97499.00
2023-03-23T00:05:58.300Z,97497.00
2023-03-23T00:06:08.421Z,97495.00
2023-03-23T00:06:18.428Z,97497.00
2023-03-23T00:06:28.443Z,97497.00
2023-03-23T00:06:38.552Z,97497.00
2023-03-23T00:06:48.559Z,97495.00
2023-03-23T00:06:58.558Z,97497.00
2023-03-23T00:07:08.578Z,97497.00
2023-03-23T00:07:18.598Z,97495.00
2023-03-23T00:07:28.619Z,97497.00
2023-03-23T00:07:38.607Z,97497.00
2023-03-23T00:07:48.627Z,97495.00
2023-03-23T00:07:58.648Z,97495.00
2023-03-23T00:08:08.650Z,97497.00
2023-03-23T00:08:18.649Z,97495.00
2023-03-23T00:08:28.659Z,97495.00
2023-03-23T00:08:38.704Z,97497.00
2023-03-23T00:08:48.716Z,97495.00
2023-03-23T00:08:58.840Z,97493.00
2023-03-23T00:09:08.920Z,97495.00
2023-03-23T00:09:18.928Z,97497.00
2023-03-23T00:09:28.919Z,97493.00
2023-03-23T00:09:38.934Z,97495.00
2023-03-23T00:09:48.942Z,97495.00
2023-03-23T00:09:59.002Z,97497.00
2023-03-23T00:10:09.005Z,97497.00
2023-03-23T00:10:19.092Z,97497.00
2023-03-23T00:10:29.208Z,97495.00
2023-03-23T00:10:39.214Z,97495.00
2023-03-23T00:10:49.231Z,97495.00
2023-03-23T00:10:59.254Z,97495.00
2023-03-23T00:11:09.254Z,97495.00
2023-03-23T00:11:19.271Z,97497.00
2023-03-23T00:11:29.669Z,97493.00
2023-03-23T00:11:39.749Z,97495.00
2023-03-23T00:11:49.754Z,97495.00
2023-03-23T00:11:59.769Z,97495.00
2023-03-23T00:12:09.858Z,97497.00
2023-03-23T00:12:19.957Z,97497.00
2023-03-23T00:12:31.532Z,97493.00
2023-03-23T00:12:40.029Z,97491.00
2023-03-23T00:12:50.043Z,97493.00
2023-03-23T00:13:00.248Z,97497.00
2023-03-23T00:13:10.251Z,97497.00
2023-03-23T00:13:20.266Z,97495.00
2023-03-23T00:13:30.304Z,97493.00
2023-03-23T00:13:40.319Z,97495.00
2023-03-23T00:13:50.373Z,97495.00
2023-03-23T00:14:00.390Z,97497.00
2023-03-23T00:14:10.395Z,97495.00
2023-03-23T00:14:20.404Z,97495.00
2023-03-23T00:14:30.420Z,97495.00
2023-03-23T00:14:40.501Z,97495.00
2023-03-23T00:14:50.521Z,97495.00
2023-03-23T00:15:00.659Z,97495.00
2023-03-23T00:15:10.685Z,97495.00
2023-03-23T00:15:20.688Z,97495.00
2023-03-23T00:15:30.775Z,97495.00
2023-03-23T00:15:40.959Z,97495.00
2023-03-23T00:15:51.075Z,97495.00
2023-03-23T00:16:04.347Z,97495.00
2023-03-23T00:16:11.090Z,97497.00
2023-03-23T00:16:21.090Z,97495.00
2023-03-23T00:16:31.113Z,97499.00
2023-03-23T00:16:41.117Z,97497.00
2023-03-23T00:16:51.129Z,97497.00
2023-03-23T00:17:01.139Z,97499.00
2023-03-23T00:17:11.163Z,97495.00
2023-03-23T00:17:21.223Z,97497.00
2023-03-23T00:17:31.294Z,97499.00
2023-03-23T00:17:41.317Z,97497.00
2023-03-23T00:17:51.381Z,97499.00
2023-03-23T00:18:01.439Z,97499.00
2023-03-23T00:18:11.435Z,97497.00
2023-03-23T00:18:21.442Z,97499.00
2023-03-23T00:18:31.463Z,97499.00
2023-03-23T00:18:41.474Z,97497.00
2023-03-23T00:18:51.481Z,97499.00
2023-03-23T00:19:01.486Z,97497.00
2023-03-23T00:19:11.519Z,97497.00
2023-03-23T00:19:21.520Z,97497.00
2023-03-23T00:19:31.519Z,97499.00
2023-03-23T00:19:41.534Z,97499.00
2023-03-23T00:19:51.541Z,97499.00
2023-03-23T00:20:01.553Z,97499.00
2023-03-23T00:20:11.560Z,97499.00
2023-03-23T00:20:21.566Z,97499.00
2023-03-23T00:20:31.581Z,97499.00
2023-03-23T00:20:41.617Z,97499.00
2023-03-23T00:20:51.629Z,97499.00
2023-03-23T00:21:01.663Z,97499.00
2023-03-23T00:21:11.732Z,97501.00
2023-03-23T00:21:21.840Z,97499.00
2023-03-23T00:21:31.835Z,97501.00
2023-03-23T00:21:41.844Z,97501.00
2023-03-23T00:21:51.971Z,97501.00
2023-03-23T00:22:01.991Z,97501.00
2023-03-23T00:22:12.073Z,97499.00
2023-03-23T00:22:22.089Z,97499.00
2023-03-23T00:22:32.349Z,97499.00
2023-03-23T00:22:42.348Z,97497.00
2023-03-23T00:22:52.358Z,97501.00
2023-03-23T00:23:02.359Z,97499.00
2023-03-23T00:23:12.372Z,97503.00
2023-03-23T00:23:22.371Z,97499.00
2023-03-23T00:23:32.501Z,97499.00
2023-03-23T00:23:42.508Z,97501.00
2023-03-23T00:23:52.511Z,97499.00
2023-03-23T00:24:02.541Z,97501.00
2023-03-23T00:24:12.905Z,97501.00
2023-03-23T00:24:22.885Z,97499.00
2023-03-23T00:24:32.876Z,97499.00
2023-03-23T00:24:42.899Z,97499.00
2023-03-23T00:24:53.025Z,97501.00
2023-03-23T00:25:03.050Z,97499.00
2023-03-23T00:25:13.131Z,97499.00
2023-03-23T00:25:23.219Z,97497.00
2023-03-23T00:25:33.206Z,97501.00
2023-03-23T00:25:43.314Z,97499.00
2023-03-23T00:25:53.596Z,97499.00
2023-03-23T00:26:03.600Z,97499.00
2023-03-23T00:26:13.723Z,97501.00
2023-03-23T00:26:24.028Z,97499.00
2023-03-23T00:26:34.209Z,97499.00
2023-03-23T00:26:47.977Z,97503.00
2023-03-23T00:26:54.252Z,97497.00
2023-03-23T00:27:04.273Z,97501.00
2023-03-23T00:27:14.300Z,97499.00
2023-03-23T00:27:24.304Z,97497.00
2023-03-23T00:27:34.559Z,97497.00
2023-03-23T00:27:44.557Z,97497.00
2023-03-23T00:27:54.564Z,97497.00
2023-03-23T00:28:04.574Z,97499.00
2023-03-23T00:28:14.571Z,97497.00
2023-03-23T00:28:24.583Z,97497.00
2023-03-23T00:28:34.668Z,97499.00
2023-03-23T00:28:44.672Z,97497.00
2023-03-23T00:28:54.699Z,97499.00
2023-03-23T00:29:04.711Z,97497.00
2023-03-23T00:29:14.755Z,97499.00
2023-03-23T00:29:24.806Z,97495.00
2023-03-23T00:29:34.798Z,97497.00
2023-03-23T00:29:44.884Z,97501.00
2023-03-23T00:29:54.879Z,97499.00
2023-03-23T00:30:04.913Z,97501.00
2023-03-23T00:30:14.918Z,97499.00
2023-03-23T00:30:24.968Z,97501.00
2023-03-23T00:30:34.974Z,97501.00
2023-03-23T00:30:45.084Z,97503.00
2023-03-23T00:30:55.075Z,97501.00
2023-03-23T00:31:05.115Z,97501.00
2023-03-23T00:31:15.233Z,97501.00
2023-03-23T00:31:25.234Z,97503.00
2023-03-23T00:31:35.480Z,97501.00
2023-03-23T00:31:45.480Z,97501.00
2023-03-23T00:31:55.600Z,97503.00
2023-03-23T00:32:05.868Z,97501.00
2023-03-23T00:32:15.877Z,97501.00
2023-03-23T00:32:25.885Z,97503.00
2023-03-23T00:32:35.893Z,97501.00
2023-03-23T00:32:45.902Z,97503.00
2023-03-23T00:32:55.913Z,97501.00
2023-03-23T00:33:05.945Z,97501.00
2023-03-23T00:33:15.978Z,97501.00
2023-03-23T00:33:25.977Z,97503.00
2023-03-23T00:33:35.980Z,97501.00
2023-03-23T00:33:45.994Z,97503.00
2023-03-23T00:33:56.000Z,97501.00
2023-03-23T00:34:06.038Z,97503.00
2023-03-23T00:34:16.200Z,97505.00
2023-03-23T00:34:26.242Z,97499.00
2023-03-23T00:34:36.235Z,97503.00
2023-03-23T00:34:46.237Z,97499.00
2023-03-23T00:34:56.488Z,97501.00
2023-03-23T00:35:06.494Z,97501.00
2023-03-23T00:35:16.550Z,97503.00
2023-03-23T00:35:26.614Z,97499.00
2023-03-23T00:35:36.672Z,97499.00
2023-03-23T00:35:46.748Z,97501.00
2023-03-23T00:35:56.811Z,97497.00
2023-03-23T00:36:06.948Z,97499.00
2023-03-23T00:36:16.975Z,97497.00
2023-03-23T00:36:27.021Z,97497.00
2023-03-23T00:36:37.148Z,97499.00
2023-03-23T00:36:47.148Z,97499.00
2023-03-23T00:36:57.212Z,97499.00
2023-03-23T00:37:07.246Z,97501.00
2023-03-23T00:37:17.373Z,97501.00
2023-03-23T00:37:27.383Z,97499.00
2023-03-23T00:37:37.464Z,97503.00
2023-03-23T00:37:47.512Z,97503.00
2023-03-23T00:37:57.513Z,97503.00
2023-03-23T00:38:07.599Z,97503.00
2023-03-23T00:38:17.833Z,97507.00
2023-03-23T00:38:27.917Z,97503.00
2023-03-23T00:38:37.957Z,97507.00
2023-03-23T00:38:48.264Z,97505.00
2023-03-23T00:38:58.305Z,97505.00
2023-03-23T00:39:08.319Z,97505.00
2023-03-23T00:39:18.409Z,97503.00
2023-03-23T00:39:28.434Z,97503.00
2023-03-23T00:39:38.421Z,97501.00
2023-03-23T00:39:48.424Z,97503.00
2023-03-23T00:39:58.549Z,97501.00
2023-03-23T00:40:08.544Z,97501.00
2023-03-23T00:40:18.550Z,97497.00
2023-03-23T00:40:28.812Z,97497.00
2023-03-23T00:40:38.820Z,97497.00
2023-03-23T00:40:48.821Z,97493.00
2023-03-23T00:40:58.830Z,97495.00
2023-03-23T00:41:08.842Z,97491.00
2023-03-23T00:41:18.851Z,97493.00
2023-03-23T00:41:28.852Z,97497.00
2023-03-23T00:41:38.874Z,97493.00
2023-03-23T00:41:48.871Z,97497.00
2023-03-23T00:41:58.872Z,97493.00
2023-03-23T00:42:08.929Z,97493.00
2023-03-23T00:42:18.943Z,97495.00
2023-03-23T00:42:28.957Z,97493.00
2023-03-23T00:42:38.953Z,97493.00
2023-03-23T00:42:49.021Z,97495.00
2023-03-23T00:42:59.028Z,97495.00
2023-03-23T00:43:09.027Z,97495.00
2023-03-23T00:43:19.116Z,97493.00
2023-03-23T00:43:29.127Z,97495.00
2023-03-23T00:43:39.122Z,97495.00
2023-03-23T00:43:49.123Z,97491.00
2023-03-23T00:43:59.184Z,97495.00
2023-03-23T00:44:09.190Z,97495.00
2023-03-23T00:44:21.935Z,97495.00
2023-03-23T00:44:29.405Z,97495.00
2023-03-23T00:44:39.454Z,97495.00
2023-03-23T00:44:49.460Z,97497.00
2023-03-23T00:44:59.479Z,97495.00
2023-03-23T00:45:09.467Z,97497.00
2023-03-23T00:45:19.587Z,97495.00
2023-03-23T00:45:29.605Z,97495.00
2023-03-23T00:45:40.065Z,97495.00
2023-03-23T00:45:49.952Z,97493.00
2023-03-23T00:46:00.097Z,97495.00
2023-03-23T00:46:10.385Z,97495.00
2023-03-23T00:46:20.518Z,97495.00
2023-03-23T00:46:30.525Z,97491.00
2023-03-23T00:46:40.871Z,97489.00
2023-03-23T00:46:50.952Z,97491.00
2023-03-23T00:47:00.934Z,97491.00
2023-03-23T00:47:10.950Z,97493.00
2023-03-23T00:47:21.026Z,97489.00
2023-03-23T00:47:31.082Z,97489.00
2023-03-23T00:47:41.095Z,97489.00
2023-03-23T00:47:51.108Z,97493.00
2023-03-23T00:48:01.227Z,97491.00
2023-03-23T00:48:11.236Z,97495.00
2023-03-23T00:48:21.499Z,97493.00
2023-03-23T00:48:31.595Z,97495.00
2023-03-23T00:48:41.718Z,97489.00
2023-03-23T00:48:51.873Z,97491.00
2023-03-23T00:49:02.043Z,97495.00
2023-03-23T00:49:12.038Z,97495.00
2023-03-23T00:49:22.417Z,97495.00
2023-03-23T00:49:32.401Z,97489.00
2023-03-23T00:49:42.396Z,97487.00
2023-03-23T00:49:52.397Z,97487.00
2023-03-23T00:50:02.454Z,97487.00
2023-03-23T00:50:12.443Z,97487.00
2023-03-23T00:50:26.797Z,97489.00
2023-03-23T00:50:38.715Z,97485.00
2023-03-23T00:50:42.574Z,97491.00
2023-03-23T00:50:52.585Z,97487.00
2023-03-23T00:51:02.595Z,97489.00
2023-03-23T00:51:12.604Z,97487.00
2023-03-23T00:51:22.602Z,97495.00
2023-03-23T00:51:32.740Z,97493.00
2023-03-23T00:51:42.871Z,97493.00
2023-03-23T00:51:52.889Z,97491.00
2023-03-23T00:52:03.152Z,97495.00
2023-03-23T00:52:13.175Z,97497.00
2023-03-23T00:52:23.296Z,97493.00
2023-03-23T00:52:33.559Z,97495.00
2023-03-23T00:52:43.673Z,97493.00
2023-03-23T00:52:53.702Z,97493.00
2023-03-23T00:53:04.055Z,97495.00
2023-03-23T00:53:14.057Z,97497.00
2023-03-23T00:53:24.056Z,97493.00
2023-03-23T00:53:34.184Z,97495.00
2023-03-23T00:53:44.190Z,97497.00
2023-03-23T00:53:54.234Z,97495.00
2023-03-23T00:54:04.210Z,97499.00
2023-03-23T00:54:14.333Z,97497.00
2023-03-23T00:54:24.341Z,97501.00
2023-03-23T00:54:34.459Z,97495.00
2023-03-23T00:54:44.619Z,97499.00
2023-03-23T00:54:54.623Z,97501.00
2023-03-23T00:55:04.633Z,97499.00
2023-03-23T00:55:14.695Z,97497.00
2023-03-23T00:55:24.696Z,97497.00
2023-03-23T00:55:34.699Z,97501.00
2023-03-23T00:55:44.726Z,97497.00
2023-03-23T00:55:54.753Z,97497.00
2023-03-23T00:56:04.756Z,97495.00
2023-03-23T00:56:14.865Z,97499.00
2023-03-23T00:56:25.180Z,97495.00
2023-03-23T00:56:35.252Z,97497.00
2023-03-23T00:56:45.252Z,97497.00
2023-03-23T00:56:55.640Z,97491.00
2023-03-23T00:57:05.717Z,97495.00
2023-03-23T00:57:15.723Z,97491.00
2023-03-23T00:57:25.757Z,97487.00
2023-03-23T00:57:35.780Z,97487.00
2023-03-23T00:57:45.793Z,97489.00
2023-03-23T00:57:55.799Z,97487.00
2023-03-23T00:58:05.826Z,97489.00
2023-03-23T00:58:15.820Z,97489.00
2023-03-23T00:58:25.829Z,97487.00
2023-03-23T00:58:35.831Z,97491.00
2023-03-23T00:58:45.858Z,97487.00
2023-03-23T00:58:55.858Z,97491.00
2023-03-23T00:59:05.883Z,97491.00
2023-03-23T00:59:15.952Z,97495.00
2023-03-23T00:59:25.961Z,97493.00
2023-03-23T00:59:35.963Z,97493.00
2023-03-23T00:59:45.977Z,97493.00
2023-03-23T00:59:56.088Z,97491.00
2023-03-23T01:00:06.246Z,97493.00
2023-03-23T01:00:16.207Z,97491.00
2023-03-23T01:00:26.255Z,97491.00
2023-03-23T01:00:36.326Z,97489.00
2023-03-23T01:00:46.367Z,97493.00
2023-03-23T01:00:56.504Z,97493.00
2023-03-23T01:01:06.590Z,97493.00
2023-03-23T01:01:16.592Z,97493.00
2023-03-23T01:01:26.578Z,97495.00
2023-03-23T01:01:36.590Z,97495.00
2023-03-23T01:01:46.649Z,97495.00
2023-03-23T01:01:56.778Z,97493.00
2023-03-23T01:02:06.804Z,97495.00
2023-03-23T01:02:16.813Z,97495.00
2023-03-23T01:02:26.814Z,97495.00
2023-03-23T01:02:37.088Z,97493.00
2023-03-23T01:02:47.090Z,97491.00
2023-03-23T01:02:57.102Z,97497.00
2023-03-23T01:03:07.135Z,97495.00
2023-03-23T01:03:17.146Z,97495.00
2023-03-23T01:03:27.151Z,97497.00
2023-03-23T01:03:37.152Z,97495.00
2023-03-23T01:03:47.152Z,97493.00
2023-03-23T01:03:57.271Z,97491.00
2023-03-23T01:04:07.273Z,97495.00
2023-03-23T01:04:17.545Z,97495.00
2023-03-23T01:04:27.568Z,97493.00
2023-03-23T01:04:37.546Z,97493.00
2023-03-23T01:04:47.550Z,97491.00
2023-03-23T01:04:57.546Z,97491.00
2023-03-23T01:05:07.655Z,97489.00
2023-03-23T01:05:17.746Z,97493.00
2023-03-23T01:05:27.750Z,97489.00
2023-03-23T01:05:37.755Z,97491.00
2023-03-23T01:05:47.765Z,97487.00
2023-03-23T01:05:58.101Z,97485.00
2023-03-23T01:06:08.102Z,97491.00
2023-03-23T01:06:18.386Z,97491.00
2023-03-23T01:06:28.371Z,97491.00
2023-03-23T01:06:38.388Z,97489.00
2023-03-23T01:06:48.388Z,97491.00
2023-03-23T01:06:58.407Z,97489.00
2023-03-23T01:07:08.487Z,97489.00
2023-03-23T01:07:18.530Z,97489.00
2023-03-23T01:07:28.587Z,97487.00
2023-03-23T01:07:38.680Z,97487.00
2023-03-23T01:07:48.695Z,97489.00
2023-03-23T01:07:58.699Z,97489.00
2023-03-23T01:08:08.742Z,97489.00
2023-03-23T01:08:18.867Z,97489.00
2023-03-23T01:08:28.880Z,97489.00
2023-03-23T01:08:38.920Z,97493.00
2023-03-23T01:08:48.951Z,97493.00
2023-03-23T01:08:58.957Z,97493.00
2023-03-23T01:09:09.218Z,97495.00
2023-03-23T01:09:19.226Z,97495.00
2023-03-23T01:09:29.259Z,97493.00
2023-03-23T01:09:39.297Z,97495.00
2023-03-23T01:09:49.293Z,97497.00
2023-03-23T01:09:59.293Z,97495.00
2023-03-23T01:10:09.364Z,97493.00
2023-03-23T01:10:19.370Z,97493.00
2023-03-23T01:10:29.463Z,97495.00
2023-03-23T01:10:39.586Z,97491.00
2023-03-23T01:10:49.717Z,97495.00
2023-03-23T01:10:59.729Z,97491.00
2023-03-23T01:11:09.724Z,97493.00
2023-03-23T01:11:20.110Z,97491.00
2023-03-23T01:11:30.112Z,97491.00
2023-03-23T01:11:40.141Z,97489.00
2023-03-23T01:11:50.152Z,97491.00
2023-03-23T01:12:00.152Z,97489.00
2023-03-23T01:12:10.154Z,97487.00
2023-03-23T01:12:20.164Z,97491.00
2023-03-23T01:12:30.162Z,97491.00
2023-03-23T01:12:40.287Z,97489.00
2023-03-23T01:12:50.405Z,97493.00
2023-03-23T01:13:00.543Z,97489.00
2023-03-23T01:13:10.542Z,97489.00
2023-03-23T01:13:20.573Z,97487.00
2023-03-23T01:13:30.583Z,97487.00
2023-03-23T01:13:40.609Z,97491.00
2023-03-23T01:13:50.605Z,97489.00
2023-03-23T01:14:00.623Z,97487.00
2023-03-23T01:14:10.765Z,97491.00
2023-03-23T01:14:20.791Z,97489.00
2023-03-23T01:14:30.787Z,97489.00
2023-03-23T01:14:40.792Z,97489.00
2023-03-23T01:14:50.834Z,97491.00
2023-03-23T01:15:00.843Z,97489.00
2023-03-23T01:15:10.850Z,97491.00
2023-03-23T01:15:20.987Z,97491.00
2023-03-23T01:15:31.079Z,97493.00
2023-03-23T01:15:41.319Z,97491.00
2023-03-23T01:15:51.365Z,97493.00
2023-03-23T01:16:01.375Z,97493.00
2023-03-23T01:16:11.428Z,97491.00
2023-03-23T01:16:21.477Z,97489.00
2023-03-23T01:16:31.511Z,97493.00
2023-03-23T01:16:41.551Z,97491.00
2023-03-23T01:16:51.592Z,97489.00
2023-03-23T01:17:01.754Z,97489.00
2023-03-23T01:17:11.751Z,97489.00
2023-03-23T01:17:21.755Z,97487.00
2023-03-23T01:17:31.776Z,97491.00
2023-03-23T01:17:41.769Z,97487.00
2023-03-23T01:17:51.782Z,97487.00
2023-03-23T01:18:01.823Z,97487.00
2023-03-23T01:18:11.827Z,97487.00
2023-03-23T01:18:21.848Z,97489.00
2023-03-23T01:18:33.878Z,97489.00
2023-03-23T01:18:41.892Z,97491.00
2023-03-23T01:18:51.899Z,97489.00
2023-03-23T01:19:02.049Z,97489.00
2023-03-23T01:19:12.067Z,97489.00
2023-03-23T01:19:22.059Z,97489.00
2023-03-23T01:19:32.082Z,97489.00
2023-03-23T01:19:42.073Z,97489.00
2023-03-23T01:19:52.198Z,97489.00
2023-03-23T01:20:02.217Z,97489.00
2023-03-23T01:20:12.301Z,97489.00
2023-03-23T01:20:22.303Z,97489.00
2023-03-23T01:20:32.302Z,97491.00
2023-03-23T01:20:42.602Z,97489.00
2023-03-23T01:20:52.625Z,97489.00
2023-03-23T01:21:02.668Z,97491.00
2023-03-23T01:21:12.723Z,97493.00
2023-03-23T01:21:22.735Z,97491.00
2023-03-23T01:21:32.733Z,97493.00
2023-03-23T01:21:42.857Z,97489.00
2023-03-23T01:21:52.860Z,97491.00
2023-03-23T01:22:02.859Z,97489.00
2023-03-23T01:22:12.895Z,97489.00
2023-03-23T01:22:23.150Z,97489.00
2023-03-23T01:22:33.163Z,97489.00
2023-03-23T01:22:43.233Z,97487.00
2023-03-23T01:22:53.246Z,97487.00
2023-03-23T01:23:03.265Z,97485.00
2023-03-23T01:23:13.269Z,97485.00
2023-03-23T01:23:23.274Z,97485.00
2023-03-23T01:23:33.293Z,97485.00
2023-03-23T01:23:43.292Z,97483.00
2023-03-23T01:23:53.338Z,97481.00
2023-03-23T01:24:03.347Z,97481.00
2023-03-23T01:24:13.357Z,97481.00
2023-03-23T01:24:23.403Z,97487.00
2023-03-23T01:24:33.522Z,97481.00
2023-03-23T01:24:43.523Z,97487.00
2023-03-23T01:24:53.517Z,97485.00
2023-03-23T01:25:03.638Z,97485.00
2023-03-23T01:25:13.791Z,97487.00
2023-03-23T01:25:23.910Z,97485.00
2023-03-23T01:25:34.007Z,97483.00
2023-03-23T01:25:44.208Z,97489.00
2023-03-23T01:25:54.218Z,97487.00
2023-03-23T01:26:04.230Z,97489.00
2023-03-23T01:26:14.244Z,97487.00
2023-03-23T01:26:24.263Z,97487.00
2023-03-23T01:26:34.273Z,97487.00
2023-03-23T01:26:44.371Z,97487.00
2023-03-23T01:26:54.389Z,97487.00
2023-03-23T01:27:04.394Z,97487.00
2023-03-23T01:27:14.403Z,97487.00
2023-03-23T01:27:24.415Z,97485.00
2023-03-23T01:27:34.475Z,97483.00
2023-03-23T01:27:44.481Z,97483.00
2023-03-23T01:27:54.477Z,97483.00
2023-03-23T01:28:04.810Z,97483.00
2023-03-23T01:28:14.809Z,97483.00
2023-03-23T01:28:24.821Z,97483.00
2023-03-23T01:28:34.817Z,97480.00
2023-03-23T01:28:44.945Z,97480.00
2023-03-23T01:28:54.958Z,97483.00
2023-03-23T01:29:04.969Z,97481.00
2023-03-23T01:29:14.978Z,97481.00
2023-03-23T01:29:25.013Z,97480.00
2023-03-23T01:29:35.094Z,97480.00
2023-03-23T01:29:45.369Z,97480.00
2023-03-23T01:29:55.368Z,97480.00
2023-03-23T01:30:05.373Z,97480.00
2023-03-23T01:30:15.388Z,97480.00
2023-03-23T01:30:25.407Z,97480.00
2023-03-23T01:30:35.474Z,97480.00
2023-03-23T01:30:45.474Z,97478.00
2023-03-23T01:30:55.489Z,97480.00
2023-03-23T01:31:14.232Z,97478.00
2023-03-23T01:31:15.505Z,97481.00
2023-03-23T01:31:25.630Z,97478.00
2023-03-23T01:31:35.641Z,97478.00
2023-03-23T01:31:45.639Z,97478.00
2023-03-23T01:31:55.638Z,97480.00
2023-03-23T01:32:05.759Z,97480.00
2023-03-23T01:32:16.380Z,97480.00
2023-03-23T01:32:25.849Z,97478.00
2023-03-23T01:32:36.116Z,97478.00
2023-03-23T01:32:46.132Z,97478.00
2023-03-23T01:32:56.134Z,97476.00
2023-03-23T01:33:06.137Z,97480.00
2023-03-23T01:33:26.259Z,97480.00
2023-03-23T01:33:36.288Z,97480.00
2023-03-23T01:33:46.287Z,97478.00
2023-03-23T01:33:56.304Z,97480.00
2023-03-23T01:34:06.414Z,97480.00
2023-03-23T01:34:16.565Z,97478.00
2023-03-23T01:34:26.680Z,97478.00
2023-03-23T01:34:36.747Z,97478.00
2023-03-23T01:34:47.005Z,97478.00
2023-03-23T01:34:57.003Z,97478.00
2023-03-23T01:35:07.031Z,97476.00
2023-03-23T01:35:17.049Z,97476.00
2023-03-23T01:35:27.115Z,97476.00
2023-03-23T01:35:37.114Z,97476.00
2023-03-23T01:35:47.229Z,97476.00
2023-03-23T01:35:57.269Z,97474.00
2023-03-23T01:36:07.243Z,97474.00
2023-03-23T01:36:17.350Z,97472.00
2023-03-23T01:36:27.603Z,97472.00
2023-03-23T01:36:37.727Z,97476.00
2023-03-23T01:36:47.839Z,97474.00
2023-03-23T01:36:58.000Z,97476.00
2023-03-23T01:37:08.031Z,97476.00
2023-03-23T01:37:18.159Z,97476.00
2023-03-23T01:37:28.422Z,97476.00
2023-03-23T01:37:38.481Z,97474.00
2023-03-23T01:37:48.604Z,97474.00
2023-03-23T01:37:58.964Z,97474.00
2023-03-23T01:38:08.964Z,97474.00
2023-03-23T01:38:19.109Z,97472.00
2023-03-23T01:38:29.365Z,97476.00
2023-03-23T01:38:39.400Z,97474.00
2023-03-23T01:38:49.407Z,97472.00
2023-03-23T01:38:59.407Z,97474.00
2023-03-23T01:39:09.415Z,97474.00
2023-03-23T01:39:19.424Z,97472.00
2023-03-23T01:39:29.424Z,97470.00
2023-03-23T01:39:39.440Z,97472.00
2023-03-23T01:39:49.550Z,97470.00
2023-03-23T01:39:59.632Z,97470.00
2023-03-23T01:40:09.909Z,97470.00
2023-03-23T01:40:20.052Z,97466.00
2023-03-23T01:40:30.107Z,97468.00
2023-03-23T01:40:40.374Z,97468.00
2023-03-23T01:40:50.371Z,97468.00
2023-03-23T01:41:00.385Z,97466.00
2023-03-23T01:41:10.394Z,97466.00
2023-03-23T01:41:20.405Z,97466.00
2023-03-23T01:41:30.452Z,97458.00
2023-03-23T01:41:40.530Z,97468.00
2023-03-23T01:41:50.612Z,97466.00
2023-03-23T01:42:00.685Z,97458.00
2023-03-23T01:42:10.753Z,97466.00
2023-03-23T01:42:21.141Z,97458.00
2023-03-23T01:42:31.146Z,97456.00
2023-03-23T01:42:41.157Z,97456.00
2023-03-23T01:42:51.168Z,97454.00
2023-03-23T01:43:01.178Z,97452.00
2023-03-23T01:43:11.289Z,97456.00
2023-03-23T01:43:21.296Z,97454.00
2023-03-23T01:43:31.309Z,97452.00
2023-03-23T01:43:41.401Z,97452.00
2023-03-23T01:43:51.500Z,97450.00
2023-03-23T01:44:01.771Z,97452.00
2023-03-23T01:44:11.833Z,97454.00
2023-03-23T01:44:21.962Z,97448.00
2023-03-23T01:44:32.230Z,97454.00
2023-03-23T01:44:42.249Z,97452.00
2023-03-23T01:44:52.247Z,97452.00
2023-03-23T01:45:02.319Z,97452.00
2023-03-23T01:45:12.308Z,97454.00
2023-03-23T01:45:22.463Z,97456.00
2023-03-23T01:45:32.470Z,97454.00
2023-03-23T01:45:42.799Z,97456.00
2023-03-23T01:45:52.607Z,97454.00
2023-03-23T01:46:02.606Z,97458.00
2023-03-23T01:46:12.738Z,97452.00
2023-03-23T01:46:22.745Z,97452.00
2023-03-23T01:46:32.746Z,97454.00
2023-03-23T01:46:43.127Z,97454.00
2023-03-23T01:46:53.137Z,97452.00
2023-03-23T01:47:03.139Z,97454.00
2023-03-23T01:47:13.143Z,97448.00
2023-03-23T01:47:23.147Z,97452.00
2023-03-23T01:47:33.162Z,97450.00
2023-03-23T01:47:43.271Z,97448.00
2023-03-23T01:47:53.288Z,97450.00
2023-03-23T01:48:03.332Z,97448.00
2023-03-23T01:48:13.348Z,97448.00
2023-03-23T01:48:23.717Z,97450.00
2023-03-23T01:48:33.735Z,97448.00
2023-03-23T01:48:43.736Z,97448.00
2023-03-23T01:48:53.750Z,97448.00
2023-03-23T01:49:03.759Z,97446.00
2023-03-23T01:49:13.762Z,97446.00
2023-03-23T01:49:23.765Z,97446.00
2023-03-23T01:49:33.789Z,97452.00
2023-03-23T01:49:43.829Z,97448.00
2023-03-23T01:49:53.819Z,97448.00
2023-03-23T01:50:03.832Z,97446.00
2023-03-23T01:50:13.856Z,97446.00
2023-03-23T01:50:23.861Z,97446.00
2023-03-23T01:50:33.970Z,97446.00
2023-03-23T01:50:44.018Z,97444.00
2023-03-23T01:50:54.011Z,97444.00
2023-03-23T01:51:04.026Z,97442.00
2023-03-23T01:51:14.325Z,97444.00
2023-03-23T01:51:30.690Z,97444.00
2023-03-23T01:51:41.678Z,97440.00
2023-03-23T01:51:44.458Z,97440.00
2023-03-23T01:51:54.469Z,97440.00
2023-03-23T01:52:04.598Z,97438.00
2023-03-23T01:52:14.608Z,97442.00
2023-03-23T01:52:24.737Z,97438.00
2023-03-23T01:52:34.760Z,97438.00
2023-03-23T01:52:44.881Z,97442.00
2023-03-23T01:52:54.885Z,97440.00
2023-03-23T01:53:04.896Z,97440.00
2023-03-23T01:53:14.889Z,97440.00
2023-03-23T01:53:24.947Z,97440.00
2023-03-23T01:53:35.325Z,97440.00
2023-03-23T01:53:45.432Z,97436.00
2023-03-23T01:53:55.431Z,97442.00
2023-03-23T01:54:05.746Z,97440.00
2023-03-23T01:54:15.798Z,97438.00
2023-03-23T01:54:25.861Z,97438.00
2023-03-23T01:54:35.869Z,97436.00
2023-03-23T01:54:45.886Z,97436.00
2023-03-23T01:54:55.891Z,97434.00
2023-03-23T01:55:06.006Z,97432.00
2023-03-23T01:55:16.056Z,97432.00
2023-03-23T01:55:26.107Z,97432.00
2023-03-23T01:55:36.107Z,97432.00
2023-03-23T01:55:46.366Z,97430.00
2023-03-23T01:55:56.364Z,97430.00
2023-03-23T01:56:06.492Z,97432.00
2023-03-23T01:56:16.810Z,97432.00
2023-03-23T01:56:26.882Z,97428.00
2023-03-23T01:56:36.945Z,97430.00
2023-03-23T01:56:46.952Z,97432.00
2023-03-23T01:56:57.018Z,97432.00
2023-03-23T01:57:07.020Z,97432.00
2023-03-23T01:57:17.100Z,97432.00
2023-03-23T01:57:27.249Z,97432.00
2023-03-23T01:57:37.266Z,97432.00
2023-03-23T01:57:47.266Z,97432.00
2023-03-23T01:57:57.328Z,97430.00
2023-03-23T01:58:07.335Z,97432.00
2023-03-23T01:58:17.335Z,97434.00